Storm Events Database

Event Details

Event Tornado
-- Scale F3
-- Length 12 Miles
-- Width 600 Yards
State MISSISSIPPI
County/Area WINSTON
WFO JAN
Report Source NWS STORM SURVEY
NCDC Data Source PDS
Begin Date 2004-11-24 02:27:00.0 CST
Begin Location 6SE NOXAPATER
Begin Lat/Lon 32.93/-88.98
End Date 2004-11-24 02:45:00.0 CST
End Location 2SE FEARNS SPGS
End Lat/Lon 33.00/-88.83
Deaths Direct/Indirect 1/0 (fatality details below, when available...)
Injuries Direct/Indirect 2/0
Property Damage 2.5M
Crop Damage
Event Narrative This strong tornado moved into Winston county from Neshoba county and tracked northeast for 12 miles before moving into Noxubee county. Just inside the Winston county line four large chicken houses were destroyed. As the tornado tracked northeast across State Route 393 and 397, a few hundred trees were uprooted and snapped. Several homes sustained minor roof damage. One home was totally destroyed on McBrayer Road. Pieces of the home was blown and scattered across a field for 1/4 mile. Here three vehicles were moved with two of them landing on top of tree debris and the other thrown into a ditch. This home was where the two injuries and one fatality occurred. The tornado was at its widest point here and as it tracked northeast hundreds of trees were blown down. The tornado moved into Noxubee county 2 miles southeast of Ferns Springs. The total path length across northern Neshoba, southeast Winston and western Noxubee county was 21 miles.


Event Fatality Details

Type Age Gender Fatality Location
Death 44 Male Permanent Home


     ‚Äč



All events for this episode:

Location County/Zone St. Date Time T.Z. Type Mag Dth Inj PrD CrD
Totals: 1 6 12.727M 0.00K
GREENVILLE WASHINGTON CO. MS 11/23/2004 18:21 CST Thunderstorm Wind 70 kts. EG 0 0 30.00K 0.00K
HOLCOMB GRENADA CO. MS 11/23/2004 18:22 CST Thunderstorm Wind 70 kts. EG 0 0 10.00K 0.00K
GREENVILLE WASHINGTON CO. MS 11/23/2004 18:30 CST Thunderstorm Wind 70 kts. EG 0 0 50.00K 0.00K
BLAINE SUNFLOWER CO. MS 11/23/2004 18:45 CST Thunderstorm Wind 70 kts. EG 0 0 10.00K 0.00K
INVERNESS SUNFLOWER CO. MS 11/23/2004 18:50 CST Thunderstorm Wind 70 kts. EG 0 0 20.00K 0.00K
CALEDONIA LOWNDES CO. MS 11/23/2004 19:10 CST Hail 1.00 in. 0 0 0.00K 0.00K
COLUMBUS AFB LOWNDES CO. MS 11/23/2004 19:10 CST Thunderstorm Wind 50 kts. EG 0 0 1.00K 0.00K
HARDY GRENADA CO. MS 11/23/2004 19:40 CST Thunderstorm Wind 55 kts. EG 0 0 30.00K 0.00K
GREENVILLE WASHINGTON CO. MS 11/23/2004 20:25 CST Flash Flood 0 0 3.00K 0.00K
EAGLE BEND WARREN CO. MS 11/23/2004 21:39 CST Thunderstorm Wind 52 kts. EG 0 0 2.00K 0.00K
GREENWOOD LEFLORE CO. MS 11/23/2004 21:45 CST Flash Flood 0 0 50.00K 0.00K
GRENADA GRENADA CO. MS 11/23/2004 22:38 CST Flash Flood 0 0 15.00K 0.00K
PORT GIBSON CLAIBORNE CO. MS 11/23/2004 23:10 CST Hail 0.75 in. 0 0 0.00K 0.00K
VICKSBURG WARREN CO. MS 11/23/2004 23:15 CST Hail 0.75 in. 0 0 0.00K 0.00K
NATCHEZ ADAMS CO. MS 11/23/2004 23:24 CST Hail 0.75 in. 0 0 0.00K 0.00K
VICKSBURG WARREN CO. MS 11/23/2004 23:31 CST Tornado F0 0 0 1.00K 0.00K
VICKSBURG WARREN CO. MS 11/23/2004 23:32 CST Thunderstorm Wind 63 kts. EG 0 0 1.00K 0.00K
CHURCH HILL JEFFERSON CO. MS 11/23/2004 23:35 CST Hail 0.75 in. 0 0 0.00K 0.00K
FAYETTE JEFFERSON CO. MS 11/23/2004 23:40 CST Tornado F3 0 0 300.00K 0.00K
UTICA HINDS CO. MS 11/23/2004 23:40 CST Thunderstorm Wind 57 kts. EG 0 0 5.00K 0.00K
LORMAN JEFFERSON CO. MS 11/23/2004 23:50 CST Hail 0.75 in. 0 0 0.00K 0.00K
NATCHEZ ADAMS CO. MS 11/23/2004 23:55 CST Thunderstorm Wind 51 kts. EG 0 0 0.00K 0.00K
RAYMOND HINDS CO. MS 11/23/2004 23:56 CST Hail 0.75 in. 0 0 0.00K 0.00K
TILLMAN CLAIBORNE CO. MS 11/24/2004 00:04 CST Tornado F0 0 0 1.00K 0.00K
WASHINGTON ADAMS CO. MS 11/24/2004 00:05 CST Hail 0.75 in. 0 0 0.00K 0.00K
WASHINGTON ADAMS CO. MS 11/24/2004 00:06 CST Thunderstorm Wind 62 kts. EG 0 0 5.00K 0.00K
CLINTON HINDS CO. MS 11/24/2004 00:18 CST Thunderstorm Wind 68 kts. EG 0 0 15.00K 0.00K
CARPENTER COPIAH CO. MS 11/24/2004 00:33 CST Tornado F0 0 0 1.00K 0.00K
UTICA HINDS CO. MS 11/24/2004 00:33 CST Tornado F0 0 0 1.00K 0.00K
UTICA HINDS CO. MS 11/24/2004 00:34 CST Hail 1.75 in. 0 0 5.00K 0.00K
MADISON MADISON CO. MS 11/24/2004 00:35 CST Tornado F0 0 0 2.00K 0.00K
NATCHEZ ADAMS CO. MS 11/24/2004 00:42 CST Thunderstorm Wind 65 kts. EG 0 0 5.00K 0.00K
OMA LAWRENCE CO. MS 11/24/2004 00:54 CST Tornado F1 0 0 30.00K 0.00K
SAND HILL RANKIN CO. MS 11/24/2004 00:55 CST Hail 0.75 in. 0 0 0.00K 0.00K
SAND HILL RANKIN CO. MS 11/24/2004 00:57 CST Thunderstorm Wind 62 kts. EG 0 0 2.00K 0.00K
TERRY HINDS CO. MS 11/24/2004 01:00 CST Thunderstorm Wind 52 kts. EG 0 0 0.00K 0.00K
SHIVERS SIMPSON CO. MS 11/24/2004 01:01 CST Tornado F2 0 0 1.500M 0.00K
LUDLOW SCOTT CO. MS 11/24/2004 01:05 CST Thunderstorm Wind 53 kts. EG 0 0 1.00K 0.00K
FLORENCE RANKIN CO. MS 11/24/2004 01:10 CST Hail 0.88 in. 0 0 0.00K 0.00K
LUDLOW SCOTT CO. MS 11/24/2004 01:15 CST Tornado F0 0 0 1.00K 0.00K
PEARL RANKIN CO. MS 11/24/2004 01:15 CST Hail 0.75 in. 0 0 0.00K 0.00K
GOOD HOPE LEAKE CO. MS 11/24/2004 01:16 CST Tornado F2 0 0 300.00K 0.00K
BRANDON RANKIN CO. MS 11/24/2004 01:25 CST Hail 0.75 in. 0 0 0.00K 0.00K
BRANDON RANKIN CO. MS 11/24/2004 01:25 CST Hail 0.75 in. 0 0 0.00K 0.00K
TILTON LAWRENCE CO. MS 11/24/2004 01:32 CST Tornado F1 0 0 25.00K 0.00K
NATCHEZ ADAMS CO. MS 11/24/2004 01:38 CST Thunderstorm Wind 58 kts. EG 0 0 1.00K 0.00K
ROSEBUD LEAKE CO. MS 11/24/2004 01:43 CST Tornado F1 0 0 125.00K 0.00K
MORTON SCOTT CO. MS 11/24/2004 01:45 CST Hail 1.75 in. 0 0 0.00K 0.00K
FAYETTE JEFFERSON CO. MS 11/24/2004 01:50 CST Thunderstorm Wind 60 kts. EG 0 0 4.00K 0.00K
RALEIGH SMITH CO. MS 11/24/2004 01:53 CST Tornado F2 0 2 3.500M 0.00K
GOSS MARION CO. MS 11/24/2004 02:05 CST Thunderstorm Wind 50 kts. EG 0 0 0.00K 0.00K
PHILADELPHIA NESHOBA CO. MS 11/24/2004 02:05 CST Thunderstorm Wind 58 kts. EG 0 0 1.00K 0.00K
LAKE SCOTT CO. MS 11/24/2004 02:10 CST Thunderstorm Wind 55 kts. EG 0 0 1.00K 0.00K
MONTROSE JASPER CO. MS 11/24/2004 02:10 CST Tornado F2 0 2 3.000M 0.00K
STALLO NESHOBA CO. MS 11/24/2004 02:19 CST Tornado F1 0 0 30.00K 0.00K
STALLO NESHOBA CO. MS 11/24/2004 02:25 CST Tornado F2 0 0 60.00K 0.00K
NOXAPATER WINSTON CO. MS 11/24/2004 02:27 CST Tornado F3 1 2 2.500M 0.00K
BASSFIELD JEFFERSON DAVIS CO. MS 11/24/2004 02:30 CST Thunderstorm Wind 75 kts. EG 0 0 60.00K 0.00K
SPRING CREEK NESHOBA CO. MS 11/24/2004 02:30 CST Thunderstorm Wind 60 kts. EG 0 0 10.00K 0.00K
HICKORY NEWTON CO. MS 11/24/2004 02:33 CST Tornado F1 0 0 500.00K 0.00K
CENTER NESHOBA CO. MS 11/24/2004 02:40 CST Thunderstorm Wind 60 kts. EG 0 0 30.00K 0.00K
MEEHAN LAUDERDALE CO. MS 11/24/2004 02:41 CST Tornado F1 0 0 150.00K 0.00K
WILLIAMSBURG COVINGTON CO. MS 11/24/2004 02:42 CST Thunderstorm Wind 55 kts. EG 0 0 1.00K 0.00K
MASHULAVILLE NOXUBEE CO. MS 11/24/2004 02:45 CST Tornado F1 0 0 100.00K 0.00K
BOGUE CHITTO LINCOLN CO. MS 11/24/2004 02:50 CST Tornado F1 0 0 60.00K 0.00K
MASHULAVILLE NOXUBEE CO. MS 11/24/2004 02:50 CST Tornado F1 0 0 70.00K 0.00K
SEMINARY COVINGTON CO. MS 11/24/2004 02:53 CST Thunderstorm Wind 55 kts. EG 0 0 1.00K 0.00K
COLLINS COVINGTON CO. MS 11/24/2004 03:00 CST Thunderstorm Wind 55 kts. EG 0 0 1.00K 0.00K
MERIDIAN LAUDERDALE CO. MS 11/24/2004 03:02 CST Thunderstorm Wind 53 kts. EG 0 0 0.00K 0.00K
MACON NOXUBEE CO. MS 11/24/2004 03:07 CST Tornado F1 0 0 100.00K 0.00K
BROOKLYN FORREST CO. MS 11/24/2004 03:33 CST Thunderstorm Wind 53 kts. EG 0 0 0.00K 0.00K
Totals: 1 6 12.727M 0.00K